Buda, Texas
Current Conditions -  °F | °C
As of 7:57 AM on Saturday 22 Nov 2014 (Local Time) from KAUS Reporting Station
Thunderstorm Thunderstorm  
Wind Chill: 65°   Ceiling: 1200
Heat Index: 65°   Visibility: 6mi
Dew Point: 63°   Wind: 6mph
Humidity: 93%   Direction: 120°ESE
Pressure: 30.03"   Gusts: NA
Location:  30.09°N, 97.84°W
Report Text: KAUS 221357Z 12005KT 6SM -TSRA BR BKN012CB OVC020 18/17 A3003 RMK AO2 TSB56 FRQ LTGICCCCG S TS S MOV NE P0000 T01830172
Loading
Personal Weather Stations






























Interactive Weather Map New forecast layout! Learn more

10-Day Weather Forecast

Advertisements
Track Severe Weather on mobile